KRNT - Renton
Updated: Thu, 12-Dec-2019 3:10pm PST
Light rain, Mist, Overcast
Light rain, Mist, Overcast
 Wind from S
Wind: S 9 mph , 15 km/h
Temperature: 46°F , 8°C
Wind Chill: 41°F , 5°C
Dew Point: 43°F , 6°C
Humidity: 87%
Barometer: 29.89 inHg , 1012.2 hPa
Summary: Light rain, Mist
Visibility: 4 miles , 6 km
Cloud details: 1700 ft
2200 ft
3500 ft
2019/12/12 23:10 KRNT 122310Z 18008KT 4SM -RA BR FEW017 SCT022 OVC035 08/06 A2989 RMK AO2 P0003 T00830061
KBFI - Seattle-Boeing
Updated: Thu, 12-Dec-2019 2:53pm PST
Light rain, Overcast
Light rain, Overcast
 Wind from S
Wind: S 15 mph , 24 km/h, Gust: 24 mph , 39 km/h
Temperature: 48°F , 9°C
Wind Chill: 42°F , 6°C
Dew Point: 43°F , 6°C
Humidity: 82%
Barometer: 29.88 inHg , 1011.9 hPa
Visibility: 5 miles , 8 km
Cloud details: 1600 ft
2019/12/12 22:53 KBFI 122253Z 19013G21KT 5SM -RA OVC016 09/06 A2988 RMK AO2 RAB22 SLP118 P0003 T00940061
 
KSEA - Seattle
Updated: Thu, 12-Dec-2019 2:53pm PST
Light rain, Overcast
Light rain, Overcast
 Wind from S
Wind: S 18 mph , 30 km/h
Temperature: 46°F , 8°C
Wind Chill: 39°F , 4°C
Dew Point: 43°F , 6°C
Humidity: 87%
Barometer: 29.88 inHg , 1011.9 hPa
Visibility: 7 miles , 11 km
Cloud details: 1600 ft
2200 ft
3600 ft
2019/12/12 22:53 KSEA 122253Z 19016KT 7SM -RA SCT016 BKN022 OVC036 08/06 A2988 RMK AO2 PK WND 20027/2232 RAB22 SLP124 P0003 T00830056
KSMP - Stampede Pass
Updated: Thu, 12-Dec-2019 2:56pm PST
Snow, Fog, Overcast
Snow, Fog, Overcast
 Wind from calm
Wind: Calm
Temperature: 34°F , 1°C
Dew Point: 30°F , -1°C
Humidity: 87%
Barometer: 29.81 inHg , 1009.5 hPa
Summary: Snow, Fog
Visibility: 1/4 mile , 0.4 km
Cloud details: 500 ft
2019/12/12 22:56 KSMP 122256Z AUTO 00000KT 1/4SM SN FG VV005 01/M01 A2981 RMK AO2 SNE05B28 SLP115 P0003 T00061006